createdAt,value
2018-04-09T00:00:52.800Z,14.52
2018-04-09T00:03:20.256Z,14.46
2018-04-09T00:05:47.718Z,14.46
2018-04-09T00:08:15.189Z,14.47
2018-04-09T00:10:42.700Z,14.46
2018-04-09T00:13:10.219Z,14.52
2018-04-09T00:15:37.741Z,14.53
2018-04-09T00:18:05.331Z,14.52
2018-04-09T00:20:32.824Z,14.58
2018-04-09T00:23:00.315Z,14.47
2018-04-09T00:25:27.781Z,14.45
2018-04-09T00:27:55.291Z,14.50
2018-04-09T00:30:22.748Z,14.41
2018-04-09T00:32:50.215Z,14.29
2018-04-09T00:35:17.677Z,14.33
2018-04-09T00:37:45.137Z,14.23
2018-04-09T00:40:12.662Z,14.15
2018-04-09T00:42:40.124Z,14.14
2018-04-09T00:45:07.579Z,14.15
2018-04-09T00:47:35.040Z,14.13
2018-04-09T00:50:02.518Z,13.99
2018-04-09T00:52:29.987Z,14.00
2018-04-09T00:54:57.482Z,14.01
2018-04-09T00:57:24.959Z,13.98
2018-04-09T00:59:52.419Z,13.92
2018-04-09T01:02:19.911Z,13.94
2018-04-09T01:04:47.379Z,13.84
2018-04-09T01:07:14.824Z,13.82
2018-04-09T01:09:42.290Z,13.69
2018-04-09T01:12:09.752Z,13.82
2018-04-09T01:14:37.211Z,13.70
2018-04-09T01:17:05.388Z,13.72
2018-04-09T01:19:32.851Z,13.71
2018-04-09T01:22:00.393Z,13.73
2018-04-09T01:24:27.868Z,13.71
2018-04-09T01:26:55.347Z,13.52
2018-04-09T01:29:23.030Z,13.46
2018-04-09T01:31:50.497Z,13.49
2018-04-09T01:34:17.957Z,13.48
2018-04-09T01:36:45.412Z,13.38
2018-04-09T01:39:12.886Z,13.23
2018-04-09T01:41:40.336Z,13.06
2018-04-09T01:44:07.795Z,12.97
2018-04-09T01:46:35.276Z,12.94
2018-04-09T01:49:02.927Z,12.87
2018-04-09T01:51:30.385Z,12.96
2018-04-09T01:53:57.892Z,12.89
2018-04-09T01:56:25.360Z,12.99
2018-04-09T01:58:53.101Z,12.89
2018-04-09T02:01:20.560Z,12.74
2018-04-09T02:03:48.023Z,12.64
2018-04-09T02:06:15.472Z,12.62
2018-04-09T02:08:42.955Z,12.79
2018-04-09T02:11:10.410Z,12.59
2018-04-09T02:13:37.874Z,12.52
2018-04-09T02:16:05.344Z,12.61
2018-04-09T02:18:32.831Z,12.58
2018-04-09T02:21:00.374Z,12.69
2018-04-09T02:23:27.844Z,12.71
2018-04-09T02:25:55.301Z,12.50
2018-04-09T02:28:22.756Z,12.28
2018-04-09T02:30:50.231Z,12.23
2018-04-09T02:33:17.695Z,12.10
2018-04-09T02:35:45.167Z,11.91
2018-04-09T02:38:12.623Z,11.77
2018-04-09T02:40:40.071Z,11.67
2018-04-09T02:43:07.567Z,11.67
2018-04-09T02:45:35.020Z,11.70
2018-04-09T02:48:02.479Z,11.69
2018-04-09T02:50:29.933Z,11.67
2018-04-09T02:52:57.387Z,11.52
2018-04-09T02:55:24.923Z,11.45
2018-04-09T02:57:52.377Z,11.37
2018-04-09T03:00:19.855Z,11.35
2018-04-09T03:02:47.336Z,11.36
2018-04-09T03:05:14.784Z,11.20
2018-04-09T03:07:42.239Z,11.06
2018-04-09T03:10:09.712Z,10.97
2018-04-09T03:12:37.170Z,10.87
2018-04-09T03:15:04.615Z,10.74
2018-04-09T03:17:32.096Z,10.69
2018-04-09T03:19:59.556Z,10.75
2018-04-09T03:22:27.010Z,10.81
2018-04-09T03:24:54.476Z,10.80
2018-04-09T03:27:21.924Z,10.78
2018-04-09T03:29:50.229Z,10.77
2018-04-09T03:32:17.678Z,10.71
2018-04-09T03:34:45.151Z,10.70
2018-04-09T03:37:12.616Z,10.74
2018-04-09T03:39:40.060Z,10.86
2018-04-09T03:42:07.508Z,10.87
2018-04-09T03:44:34.983Z,10.80
2018-04-09T03:47:02.640Z,10.71
2018-04-09T03:49:30.108Z,10.73
2018-04-09T03:51:57.580Z,10.89
2018-04-09T03:54:25.054Z,10.87
2018-04-09T03:56:52.542Z,10.86
2018-04-09T03:59:20.003Z,10.96
2018-04-09T04:01:47.459Z,11.07
2018-04-09T04:04:14.937Z,11.02
2018-04-09T04:06:42.553Z,10.90
2018-04-09T04:09:10.122Z,10.84
2018-04-09T04:11:37.685Z,10.76
2018-04-09T04:14:05.152Z,10.70
2018-04-09T04:16:44.510Z,10.71
2018-04-09T04:19:23.921Z,10.70
2018-04-09T04:21:51.595Z,10.63
2018-04-09T04:24:19.047Z,10.58
2018-04-09T04:26:46.499Z,10.52
2018-04-09T04:29:13.966Z,10.49
2018-04-09T04:31:41.427Z,10.61
2018-04-09T04:34:08.968Z,10.69
2018-04-09T04:36:36.455Z,10.78
2018-04-09T04:39:03.890Z,10.92
2018-04-09T04:41:31.360Z,10.99
2018-04-09T04:43:58.815Z,11.21
2018-04-09T04:46:26.332Z,11.50
2018-04-09T04:48:53.838Z,11.68
2018-04-09T04:51:21.308Z,11.88
2018-04-09T04:53:48.790Z,12.04
2018-04-09T04:56:16.311Z,12.12
2018-04-09T04:58:43.762Z,12.17
2018-04-09T05:01:11.227Z,12.30
2018-04-09T05:03:38.726Z,12.47
2018-04-09T05:06:06.213Z,12.59
2018-04-09T05:08:33.674Z,12.68
2018-04-09T05:11:01.169Z,12.71
2018-04-09T05:13:28.635Z,12.82
2018-04-09T05:15:56.711Z,12.96
2018-04-09T05:18:24.182Z,13.01
2018-04-09T05:20:51.653Z,13.14
2018-04-09T05:23:19.113Z,13.30
2018-04-09T05:25:46.594Z,13.43
2018-04-09T05:28:14.070Z,13.60
2018-04-09T05:30:41.565Z,13.72
2018-04-09T05:33:09.049Z,14.03
2018-04-09T05:35:36.582Z,14.56
2018-04-09T05:38:04.080Z,14.87
2018-04-09T05:40:31.543Z,15.18
2018-04-09T05:42:59.024Z,15.19
2018-04-09T05:45:26.470Z,15.08
2018-04-09T05:47:53.999Z,15.15
2018-04-09T05:50:22.064Z,15.20
2018-04-09T05:52:49.587Z,15.17
2018-04-09T05:55:17.072Z,15.24
2018-04-09T05:57:45.152Z,15.36
2018-04-09T06:00:12.648Z,15.30
2018-04-09T06:02:40.707Z,15.39
2018-04-09T06:05:09.431Z,15.56
2018-04-09T06:07:36.891Z,16.02
2018-04-09T06:10:04.382Z,16.31
2018-04-09T06:12:31.872Z,16.50
2018-04-09T06:14:59.355Z,16.82
2018-04-09T06:17:26.850Z,16.81
2018-04-09T06:19:54.315Z,16.93
2018-04-09T06:22:21.836Z,17.12
2018-04-09T06:24:49.310Z,17.19
2018-04-09T06:27:16.776Z,17.24
2018-04-09T06:29:44.235Z,17.48
2018-04-09T06:32:11.686Z,17.59
2018-04-09T06:34:39.156Z,17.76
2018-04-09T06:37:06.628Z,17.87
2018-04-09T06:39:34.091Z,17.87
2018-04-09T06:42:01.571Z,17.86
2018-04-09T06:44:29.100Z,17.81
2018-04-09T06:46:56.587Z,17.97
2018-04-09T06:49:24.107Z,18.08
2018-04-09T06:51:51.574Z,18.12
2018-04-09T06:54:19.107Z,18.22
2018-04-09T06:56:47.316Z,18.30
2018-04-09T06:59:14.780Z,18.38
2018-04-09T07:01:42.256Z,18.43
2018-04-09T07:04:09.716Z,18.51
2018-04-09T07:06:37.189Z,18.57
2018-04-09T07:09:05.448Z,18.60
2018-04-09T07:11:32.967Z,18.62
2018-04-09T07:14:00.445Z,18.86
2018-04-09T07:16:27.920Z,18.87
2018-04-09T07:18:55.388Z,18.90
2018-04-09T07:21:22.844Z,18.81
2018-04-09T07:23:50.302Z,18.76
2018-04-09T07:26:17.756Z,18.78
2018-04-09T07:28:45.236Z,18.72
2018-04-09T07:31:12.736Z,18.75
2018-04-09T07:33:40.158Z,18.72
2018-04-09T07:36:07.616Z,18.70
2018-04-09T07:38:35.073Z,18.51
2018-04-09T07:41:02.541Z,18.28
2018-04-09T07:43:30.010Z,18.02
2018-04-09T07:45:57.482Z,17.76
2018-04-09T07:48:24.998Z,17.68
2018-04-09T07:50:52.480Z,17.67
2018-04-09T07:53:19.949Z,17.74
2018-04-09T07:55:47.430Z,17.97
2018-04-09T07:58:14.903Z,18.15
2018-04-09T08:00:42.367Z,18.01
2018-04-09T08:03:09.815Z,17.84
2018-04-09T08:05:37.282Z,17.83
2018-04-09T08:08:04.766Z,17.92
2018-04-09T08:10:32.248Z,18.11
2018-04-09T08:12:59.716Z,18.09
2018-04-09T08:15:27.230Z,18.06
2018-04-09T08:17:54.713Z,18.17
2018-04-09T08:20:22.190Z,18.29
2018-04-09T08:22:49.660Z,18.48
2018-04-09T08:25:17.141Z,18.46
2018-04-09T08:27:44.654Z,18.33
2018-04-09T08:30:12.124Z,18.35
2018-04-09T08:32:39.622Z,18.40
2018-04-09T08:35:11.833Z,18.53
2018-04-09T08:37:39.299Z,18.74
2018-04-09T08:40:06.755Z,18.64
2018-04-09T08:42:34.308Z,18.54
2018-04-09T08:45:01.759Z,18.48
2018-04-09T08:47:29.278Z,18.46
2018-04-09T08:49:56.737Z,18.67
2018-04-09T08:52:24.215Z,18.78
2018-04-09T08:54:51.682Z,18.79
2018-04-09T08:57:19.311Z,18.81
2018-04-09T08:59:46.777Z,18.93
2018-04-09T09:02:14.235Z,18.99
2018-04-09T09:04:41.695Z,18.98
2018-04-09T09:07:10.152Z,19.10
2018-04-09T09:09:37.711Z,19.10
2018-04-09T09:12:05.192Z,19.02
2018-04-09T09:14:32.693Z,19.08
2018-04-09T09:17:00.161Z,19.03
2018-04-09T09:19:27.627Z,19.20
2018-04-09T09:21:55.104Z,19.46
2018-04-09T09:24:22.615Z,19.51
2018-04-09T09:26:50.060Z,19.67
2018-04-09T09:29:17.557Z,19.83
2018-04-09T09:31:45.034Z,19.97
2018-04-09T09:34:12.611Z,20.09
2018-04-09T09:36:40.079Z,20.18
2018-04-09T09:39:07.560Z,20.33
2018-04-09T09:54:30.065Z,21.54
2018-04-09T09:56:57.530Z,21.71
2018-04-09T09:59:26.024Z,21.87
2018-04-09T10:01:53.668Z,22.01
2018-04-09T10:04:29.933Z,22.24
2018-04-09T10:06:57.404Z,22.45
2018-04-09T10:09:25.557Z,22.53
2018-04-09T10:11:53.060Z,22.71
2018-04-09T10:14:20.698Z,22.88
2018-04-09T10:16:48.151Z,22.97
2018-04-09T10:19:15.621Z,23.03
2018-04-09T10:21:43.132Z,23.24
2018-04-09T10:24:10.580Z,23.31
2018-04-09T10:26:38.056Z,23.49
2018-04-09T10:29:05.547Z,23.62
2018-04-09T10:31:33.027Z,23.86
2018-04-09T10:34:00.508Z,24.03
2018-04-09T10:36:28.008Z,24.34
2018-04-09T10:38:57.739Z,24.49
2018-04-09T10:41:25.335Z,24.59
2018-04-09T10:43:52.816Z,24.89
2018-04-09T10:46:20.285Z,25.11
2018-04-09T10:48:47.767Z,25.22
2018-04-09T10:51:15.238Z,25.52
2018-04-09T10:53:42.719Z,25.54
2018-04-09T10:56:10.202Z,25.60
2018-04-09T10:58:37.675Z,25.77
2018-04-09T11:01:05.145Z,26.03
2018-04-09T11:03:32.652Z,26.03
2018-04-09T11:06:00.099Z,26.20
2018-04-09T11:08:27.579Z,26.22
2018-04-09T11:10:55.081Z,26.24
2018-04-09T11:13:22.536Z,26.18
2018-04-09T11:15:50.021Z,26.24
2018-04-09T11:18:17.483Z,26.21
2018-04-09T11:20:45.198Z,26.37
2018-04-09T11:23:12.743Z,26.50
2018-04-09T11:25:40.193Z,26.52
2018-04-09T11:28:07.712Z,26.53
2018-04-09T11:30:36.567Z,26.45
2018-04-09T11:46:00.105Z,26.27
2018-04-09T11:48:27.566Z,26.23
2018-04-09T11:50:55.034Z,26.31
2018-04-09T11:53:22.545Z,26.48
2018-04-09T11:55:50.018Z,26.42
2018-04-09T11:58:17.551Z,26.47
2018-04-09T12:00:45.014Z,26.49
2018-04-09T12:03:12.476Z,26.43
2018-04-09T12:05:39.953Z,26.63
2018-04-09T12:08:07.428Z,26.71
2018-04-09T12:10:34.881Z,26.85
2018-04-09T12:13:02.405Z,26.87
2018-04-09T12:15:29.858Z,27.03
2018-04-09T12:17:57.326Z,27.14
2018-04-09T12:20:24.847Z,27.25
2018-04-09T12:22:52.309Z,27.18
2018-04-09T12:25:19.769Z,27.04
2018-04-09T12:27:47.217Z,26.98
2018-04-09T12:30:14.689Z,27.06
2018-04-09T12:32:42.247Z,27.08
2018-04-09T12:35:09.725Z,27.21
2018-04-09T12:37:37.176Z,27.28
2018-04-09T12:40:05.114Z,27.39
2018-04-09T12:42:32.587Z,27.43
2018-04-09T12:45:00.076Z,27.54
2018-04-09T12:47:27.649Z,27.59
2018-04-09T12:49:55.135Z,27.80
2018-04-09T12:52:22.637Z,28.08
2018-04-09T12:54:50.134Z,28.35
2018-04-09T12:57:17.583Z,28.62
2018-04-09T12:59:45.054Z,28.61
2018-04-09T13:02:12.557Z,28.76
2018-04-09T13:04:40.035Z,28.91
2018-04-09T13:07:07.488Z,28.92
2018-04-09T13:09:34.948Z,29.14
2018-04-09T13:12:02.418Z,29.35
2018-04-09T13:14:29.882Z,29.48
2018-04-09T13:16:57.409Z,29.47
2018-04-09T13:19:24.850Z,29.53
2018-04-09T13:21:52.363Z,29.56
2018-04-09T13:24:21.174Z,29.75
2018-04-09T13:26:49.550Z,29.87
2018-04-09T13:29:17.358Z,30.38
2018-04-09T13:31:44.906Z,30.45
2018-04-09T13:34:12.367Z,30.60
2018-04-09T13:36:40.129Z,30.85
2018-04-09T13:39:07.612Z,30.67
2018-04-09T13:41:35.097Z,30.84
2018-04-09T13:44:02.621Z,30.88
2018-04-09T13:46:30.201Z,30.70
2018-04-09T13:48:57.701Z,30.47
2018-04-09T13:51:25.162Z,30.50
2018-04-09T13:53:52.664Z,30.55
2018-04-09T13:56:20.296Z,30.74
2018-04-09T13:58:48.970Z,30.68
2018-04-09T14:01:16.469Z,30.93
2018-04-09T14:03:43.954Z,30.88
2018-04-09T14:06:11.441Z,30.91
2018-04-09T14:08:38.938Z,30.94
2018-04-09T14:11:06.457Z,31.36
2018-04-09T14:13:33.938Z,32.11
2018-04-09T14:16:01.509Z,32.58
2018-04-09T14:18:29.072Z,33.28
2018-04-09T14:20:56.529Z,33.71
2018-04-09T14:23:24.007Z,33.99
2018-04-09T14:25:51.480Z,33.73
2018-04-09T14:28:19.295Z,34.61
2018-04-09T14:30:46.762Z,35.70
2018-04-09T14:33:14.526Z,35.37
2018-04-09T14:35:42.003Z,35.33
2018-04-09T14:38:09.466Z,35.28
2018-04-09T14:40:36.942Z,35.34
2018-04-09T14:43:04.409Z,35.85
2018-04-09T14:45:31.890Z,36.06
2018-04-09T14:47:59.419Z,35.73
2018-04-09T14:50:26.926Z,35.57
2018-04-09T14:52:54.382Z,35.96
2018-04-09T14:55:21.887Z,36.31
2018-04-09T14:57:49.351Z,36.39
2018-04-09T15:00:17.663Z,36.26
2018-04-09T15:02:45.148Z,36.64
2018-04-09T15:05:12.616Z,35.68
2018-04-09T15:07:40.087Z,35.20
2018-04-09T15:10:07.548Z,35.19
2018-04-09T15:12:35.042Z,35.63
2018-04-09T15:15:02.514Z,35.65
2018-04-09T15:17:30.015Z,35.61
2018-04-09T15:19:57.507Z,35.84
2018-04-09T15:22:25.019Z,36.09
2018-04-09T15:24:52.616Z,35.89
2018-04-09T15:27:20.093Z,36.21
2018-04-09T15:29:47.580Z,35.54
2018-04-09T15:32:15.078Z,36.24
2018-04-09T15:34:42.605Z,36.82
2018-04-09T15:37:10.059Z,36.95
2018-04-09T15:39:37.522Z,37.01
2018-04-09T15:42:04.986Z,36.79
2018-04-09T15:44:32.463Z,36.56
2018-04-09T15:47:00.012Z,37.20
2018-04-09T15:49:27.512Z,37.18
2018-04-09T15:51:54.978Z,36.64
2018-04-09T15:54:22.463Z,36.70
2018-04-09T15:56:49.912Z,36.67
2018-04-09T15:59:17.362Z,36.72
2018-04-09T16:01:44.849Z,36.07
2018-04-09T16:04:12.330Z,36.22
2018-04-09T16:06:39.793Z,36.17
2018-04-09T16:09:07.845Z,35.43
2018-04-09T16:11:35.343Z,35.42
2018-04-09T16:14:02.850Z,35.49
2018-04-09T16:16:30.540Z,35.72
2018-04-09T16:18:58.009Z,35.74
2018-04-09T16:21:26.900Z,35.49
2018-04-09T16:23:54.362Z,34.81
2018-04-09T16:26:21.833Z,34.30
2018-04-09T16:28:49.282Z,33.20
2018-04-09T16:31:16.762Z,32.27
2018-04-09T16:33:44.239Z,32.19
2018-04-09T16:36:11.742Z,32.14
2018-04-09T16:38:39.213Z,32.32
2018-04-09T16:41:06.949Z,32.04
2018-04-09T16:43:34.515Z,31.51
2018-04-09T16:46:02.029Z,31.09
2018-04-09T16:48:29.504Z,30.63
2018-04-09T16:50:57.010Z,30.44
2018-04-09T16:53:24.561Z,30.41
2018-04-09T16:55:52.053Z,30.37
2018-04-09T16:58:19.558Z,29.56
2018-04-09T17:00:48.093Z,28.76
2018-04-09T17:03:15.617Z,27.92
2018-04-09T17:05:43.242Z,27.01
2018-04-09T17:08:10.860Z,26.59
2018-04-09T17:10:38.402Z,26.27
2018-04-09T17:13:05.874Z,25.80
2018-04-09T17:15:33.478Z,25.37
2018-04-09T17:18:01.027Z,24.95
2018-04-09T17:20:28.511Z,24.54
2018-04-09T17:22:55.997Z,24.15
2018-04-09T17:25:25.102Z,23.82
2018-04-09T17:27:52.575Z,23.53
2018-04-09T17:30:20.078Z,23.34
2018-04-09T17:32:47.590Z,23.00
2018-04-09T17:35:15.075Z,22.80
2018-04-09T17:37:42.560Z,22.52
2018-04-09T17:40:10.093Z,22.27
2018-04-09T17:42:37.854Z,21.98
2018-04-09T17:45:05.366Z,21.82
2018-04-09T17:47:32.846Z,21.64
2018-04-09T17:50:00.334Z,21.56
2018-04-09T17:52:27.850Z,21.37
2018-04-09T17:54:55.326Z,21.33
2018-04-09T17:57:23.264Z,21.18
2018-04-09T17:59:50.771Z,20.98
2018-04-09T18:02:18.245Z,20.82
2018-04-09T18:04:45.696Z,20.63
2018-04-09T18:07:13.292Z,20.44
2018-04-09T18:09:40.752Z,20.29
2018-04-09T18:12:09.292Z,20.28
2018-04-09T18:14:36.794Z,20.22
2018-04-09T18:17:04.309Z,20.18
2018-04-09T18:19:31.823Z,20.09
2018-04-09T18:21:59.329Z,20.05
2018-04-09T18:24:26.816Z,20.03
2018-04-09T18:26:54.755Z,20.06
2018-04-09T18:29:22.234Z,19.97
2018-04-09T18:31:49.731Z,19.89
2018-04-09T18:34:17.269Z,19.83
2018-04-09T18:36:44.761Z,19.85
2018-04-09T18:39:12.256Z,19.85
2018-04-09T18:41:39.783Z,19.85
2018-04-09T18:44:07.321Z,19.79
2018-04-09T18:46:34.798Z,19.74
2018-04-09T18:49:02.311Z,19.71
2018-04-09T18:51:29.834Z,19.65
2018-04-09T18:53:57.415Z,19.52
2018-04-09T18:56:24.900Z,19.45
2018-04-09T18:58:52.383Z,19.45
2018-04-09T19:01:19.915Z,19.49
2018-04-09T19:03:47.393Z,19.50
2018-04-09T19:06:14.935Z,19.58
2018-04-09T19:08:42.410Z,19.72
2018-04-09T19:11:09.889Z,19.80
2018-04-09T19:13:37.469Z,19.89
2018-04-09T19:16:05.796Z,20.19
2018-04-09T19:18:33.370Z,20.13
2018-04-09T19:21:01.649Z,19.94
2018-04-09T19:23:29.218Z,19.76
2018-04-09T19:25:56.759Z,19.70
2018-04-09T19:28:24.685Z,19.56
2018-04-09T19:30:52.219Z,19.51
2018-04-09T19:33:19.736Z,19.45
2018-04-09T19:35:53.304Z,19.48
2018-04-09T19:38:26.587Z,19.39
2018-04-09T19:40:54.125Z,19.32
2018-04-09T19:43:21.687Z,19.24
2018-04-09T19:45:49.225Z,19.15
2018-04-09T19:48:16.747Z,19.09
2018-04-09T19:50:44.474Z,19.00
2018-04-09T19:53:12.049Z,18.95
2018-04-09T19:55:39.647Z,18.85
2018-04-09T19:58:07.163Z,18.71
2018-04-09T20:00:34.648Z,18.60
2018-04-09T20:03:02.247Z,18.49
2018-04-09T20:05:30.629Z,18.51
2018-04-09T20:07:58.192Z,18.45
2018-04-09T20:10:25.716Z,18.39
2018-04-09T20:12:53.218Z,18.33
2018-04-09T20:15:20.725Z,18.25
2018-04-09T20:17:48.235Z,18.15
2018-04-09T20:20:15.749Z,18.18
2018-04-09T20:22:43.234Z,18.09
2018-04-09T20:25:10.770Z,18.04
2018-04-09T20:27:39.026Z,17.98
2018-04-09T20:30:07.156Z,17.84
2018-04-09T20:32:34.650Z,17.85
2018-04-09T20:35:02.163Z,17.82
2018-04-09T20:37:29.918Z,17.76
2018-04-09T20:39:57.509Z,17.64
2018-04-09T20:42:25.141Z,17.63
2018-04-09T20:44:54.435Z,17.52
2018-04-09T20:47:22.259Z,17.49
2018-04-09T20:49:49.808Z,17.43
2018-04-09T20:52:17.361Z,17.29
2018-04-09T20:54:47.835Z,17.31
2018-04-09T20:57:15.581Z,17.28
2018-04-09T20:59:43.089Z,17.11
2018-04-09T21:02:10.685Z,17.06
2018-04-09T21:04:38.293Z,17.07
2018-04-09T21:07:05.816Z,17.10
2018-04-09T21:09:34.330Z,17.06
2018-04-09T21:12:01.801Z,16.97
2018-04-09T21:14:29.253Z,16.79
2018-04-09T21:16:56.747Z,16.55
2018-04-09T21:19:24.583Z,16.47
2018-04-09T21:21:52.063Z,16.53
2018-04-09T21:24:19.546Z,16.56
2018-04-09T21:26:47.411Z,16.54
2018-04-09T21:29:14.863Z,16.55
2018-04-09T21:31:42.339Z,16.50
2018-04-09T21:34:09.882Z,16.41
2018-04-09T21:36:37.404Z,16.37
2018-04-09T21:39:06.777Z,16.44
2018-04-09T21:41:34.270Z,16.50
2018-04-09T21:44:01.786Z,16.38
2018-04-09T21:46:29.277Z,16.32
2018-04-09T21:48:56.774Z,16.23
2018-04-09T21:51:25.510Z,16.19
2018-04-09T21:53:53.090Z,16.17
2018-04-09T21:56:20.541Z,16.12
2018-04-09T21:58:48.020Z,16.10
2018-04-09T22:01:15.624Z,16.14
2018-04-09T22:03:43.089Z,16.03
2018-04-09T22:06:10.576Z,15.93
2018-04-09T22:08:38.029Z,15.92
2018-04-09T22:11:05.501Z,15.91
2018-04-09T22:13:33.058Z,15.90
2018-04-09T22:16:00.510Z,15.87
2018-04-09T22:18:27.965Z,15.82
2018-04-09T22:20:55.434Z,15.83
2018-04-09T22:23:24.179Z,15.83
2018-04-09T22:25:52.300Z,15.73
2018-04-09T22:28:20.259Z,15.64
2018-04-09T22:30:47.793Z,15.54
2018-04-09T22:33:15.273Z,15.60
2018-04-09T22:35:42.723Z,15.54
2018-04-09T22:38:10.184Z,15.51
2018-04-09T22:40:37.653Z,15.60
2018-04-09T22:43:05.103Z,15.55
2018-04-09T22:45:32.577Z,15.62
2018-04-09T22:48:00.035Z,15.59
2018-04-09T22:50:27.503Z,15.49
2018-04-09T22:52:54.962Z,15.49
2018-04-09T22:55:22.417Z,15.43
2018-04-09T22:57:49.917Z,15.38
2018-04-09T23:00:17.385Z,15.27
2018-04-09T23:02:44.896Z,15.17
2018-04-09T23:05:12.348Z,15.10
2018-04-09T23:07:39.794Z,15.22
2018-04-09T23:10:07.340Z,15.12
2018-04-09T23:12:34.801Z,15.03
2018-04-09T23:15:02.283Z,14.86
2018-04-09T23:17:29.819Z,14.83
2018-04-09T23:19:57.385Z,14.77
2018-04-09T23:22:35.595Z,14.60
2018-04-09T23:25:03.161Z,14.56
2018-04-09T23:27:30.626Z,14.50
2018-04-09T23:29:58.075Z,14.52
2018-04-09T23:32:25.529Z,14.56
2018-04-09T23:34:52.970Z,14.46
2018-04-09T23:37:20.444Z,14.42
2018-04-09T23:39:47.905Z,14.46
2018-04-09T23:42:15.389Z,14.31
2018-04-09T23:44:42.843Z,14.23
2018-04-09T23:47:10.293Z,14.10
2018-04-09T23:49:37.810Z,14.10
2018-04-09T23:52:05.246Z,14.09
2018-04-09T23:54:32.701Z,14.04
2018-04-09T23:57:00.161Z,13.99
2018-04-09T23:59:27.612Z,13.99
